sensor_id;sensor_type;location;lat;lon;timestamp;P1;durP1;ratioP1;P2;durP2;ratioP2
66721;SDS011;53633;49.932;10.884;2023-05-07T00:00:22;7.97;;;3.90;;
66721;SDS011;53633;49.932;10.884;2023-05-07T00:02:49;7.27;;;3.23;;
66721;SDS011;53633;49.932;10.884;2023-05-07T00:05:16;8.73;;;3.75;;
66721;SDS011;53633;49.932;10.884;2023-05-07T00:07:43;7.10;;;3.67;;
66721;SDS011;53633;49.932;10.884;2023-05-07T00:10:10;8.68;;;3.58;;
66721;SDS011;53633;49.932;10.884;2023-05-07T00:12:38;6.95;;;3.33;;
66721;SDS011;53633;49.932;10.884;2023-05-07T00:15:06;8.50;;;4.10;;
66721;SDS011;53633;49.932;10.884;2023-05-07T00:17:34;8.18;;;3.78;;
66721;SDS011;53633;49.932;10.884;2023-05-07T00:20:01;8.15;;;3.97;;
66721;SDS011;53633;49.932;10.884;2023-05-07T00:22:28;8.02;;;4.20;;
66721;SDS011;53633;49.932;10.884;2023-05-07T00:24:55;10.40;;;4.20;;
66721;SDS011;53633;49.932;10.884;2023-05-07T00:27:22;10.03;;;4.57;;
66721;SDS011;53633;49.932;10.884;2023-05-07T00:29:50;9.48;;;4.05;;
66721;SDS011;53633;49.932;10.884;2023-05-07T00:32:17;9.25;;;4.35;;
66721;SDS011;53633;49.932;10.884;2023-05-07T00:34:43;8.38;;;4.60;;
66721;SDS011;53633;49.932;10.884;2023-05-07T00:37:10;9.48;;;4.70;;
66721;SDS011;53633;49.932;10.884;2023-05-07T00:39:37;8.50;;;4.73;;
66721;SDS011;53633;49.932;10.884;2023-05-07T00:42:04;9.82;;;5.18;;
66721;SDS011;53633;49.932;10.884;2023-05-07T00:44:30;10.65;;;5.90;;
66721;SDS011;53633;49.932;10.884;2023-05-07T00:46:58;10.75;;;5.70;;
66721;SDS011;53633;49.932;10.884;2023-05-07T00:49:30;9.40;;;5.20;;
66721;SDS011;53633;49.932;10.884;2023-05-07T00:52:04;9.00;;;5.03;;
66721;SDS011;53633;49.932;10.884;2023-05-07T00:54:32;10.07;;;4.82;;
66721;SDS011;53633;49.932;10.884;2023-05-07T00:56:59;9.40;;;5.00;;
66721;SDS011;53633;49.932;10.884;2023-05-07T00:59:27;8.70;;;4.65;;
66721;SDS011;53633;49.932;10.884;2023-05-07T01:01:54;10.30;;;5.00;;
66721;SDS011;53633;49.932;10.884;2023-05-07T01:04:23;9.13;;;4.60;;
66721;SDS011;53633;49.932;10.884;2023-05-07T01:06:50;10.45;;;4.50;;
66721;SDS011;53633;49.932;10.884;2023-05-07T01:09:19;9.02;;;4.38;;
66721;SDS011;53633;49.932;10.884;2023-05-07T01:11:46;7.88;;;4.35;;
66721;SDS011;53633;49.932;10.884;2023-05-07T01:14:14;9.57;;;4.90;;
66721;SDS011;53633;49.932;10.884;2023-05-07T01:16:40;8.00;;;4.83;;
66721;SDS011;53633;49.932;10.884;2023-05-07T01:19:07;9.52;;;5.47;;
66721;SDS011;53633;49.932;10.884;2023-05-07T01:21:36;9.05;;;5.18;;
66721;SDS011;53633;49.932;10.884;2023-05-07T01:24:05;10.52;;;4.85;;
66721;SDS011;53633;49.932;10.884;2023-05-07T01:26:32;9.60;;;5.53;;
66721;SDS011;53633;49.932;10.884;2023-05-07T01:28:59;10.83;;;5.77;;
66721;SDS011;53633;49.932;10.884;2023-05-07T01:31:26;10.40;;;5.20;;
66721;SDS011;53633;49.932;10.884;2023-05-07T01:33:53;9.20;;;5.22;;
66721;SDS011;53633;49.932;10.884;2023-05-07T01:36:20;10.45;;;5.38;;
66721;SDS011;53633;49.932;10.884;2023-05-07T01:38:48;10.23;;;6.00;;
66721;SDS011;53633;49.932;10.884;2023-05-07T01:41:17;11.27;;;6.43;;
66721;SDS011;53633;49.932;10.884;2023-05-07T01:43:44;11.35;;;6.80;;
66721;SDS011;53633;49.932;10.884;2023-05-07T01:46:13;12.15;;;6.80;;
66721;SDS011;53633;49.932;10.884;2023-05-07T01:48:41;11.77;;;6.25;;
66721;SDS011;53633;49.932;10.884;2023-05-07T01:51:08;12.82;;;5.47;;
66721;SDS011;53633;49.932;10.884;2023-05-07T01:53:35;11.10;;;6.17;;
66721;SDS011;53633;49.932;10.884;2023-05-07T01:56:02;11.77;;;6.22;;
66721;SDS011;53633;49.932;10.884;2023-05-07T01:58:31;12.80;;;6.82;;
66721;SDS011;53633;49.932;10.884;2023-05-07T02:00:57;11.30;;;6.65;;
66721;SDS011;53633;49.932;10.884;2023-05-07T02:03:24;10.75;;;6.60;;
66721;SDS011;53633;49.932;10.884;2023-05-07T02:05:51;12.30;;;6.77;;
66721;SDS011;53633;49.932;10.884;2023-05-07T02:08:18;12.40;;;6.60;;
66721;SDS011;53633;49.932;10.884;2023-05-07T02:10:44;11.57;;;6.70;;
66721;SDS011;53633;49.932;10.884;2023-05-07T02:13:11;12.20;;;7.22;;
66721;SDS011;53633;49.932;10.884;2023-05-07T02:15:39;11.32;;;6.57;;
66721;SDS011;53633;49.932;10.884;2023-05-07T02:18:07;11.73;;;6.83;;
66721;SDS011;53633;49.932;10.884;2023-05-07T02:20:34;11.98;;;6.50;;
66721;SDS011;53633;49.932;10.884;2023-05-07T02:23:01;12.10;;;6.72;;
66721;SDS011;53633;49.932;10.884;2023-05-07T02:25:28;11.98;;;6.90;;
66721;SDS011;53633;49.932;10.884;2023-05-07T02:27:54;12.98;;;7.45;;
66721;SDS011;53633;49.932;10.884;2023-05-07T02:30:21;12.53;;;6.93;;
66721;SDS011;53633;49.932;10.884;2023-05-07T02:32:49;12.30;;;6.90;;
66721;SDS011;53633;49.932;10.884;2023-05-07T02:35:16;13.05;;;7.30;;
66721;SDS011;53633;49.932;10.884;2023-05-07T02:37:43;12.40;;;6.95;;
66721;SDS011;53633;49.932;10.884;2023-05-07T02:40:10;10.20;;;6.97;;
66721;SDS011;53633;49.932;10.884;2023-05-07T02:42:38;14.53;;;8.00;;
66721;SDS011;53633;49.932;10.884;2023-05-07T02:45:05;13.57;;;7.63;;
66721;SDS011;53633;49.932;10.884;2023-05-07T02:47:32;15.00;;;8.73;;
66721;SDS011;53633;49.932;10.884;2023-05-07T02:50:00;15.32;;;8.63;;
66721;SDS011;53633;49.932;10.884;2023-05-07T02:52:27;13.82;;;8.30;;
66721;SDS011;53633;49.932;10.884;2023-05-07T02:54:54;14.63;;;8.27;;
66721;SDS011;53633;49.932;10.884;2023-05-07T02:57:21;14.93;;;8.43;;
66721;SDS011;53633;49.932;10.884;2023-05-07T02:59:47;13.50;;;8.30;;
66721;SDS011;53633;49.932;10.884;2023-05-07T03:02:14;13.75;;;8.02;;
66721;SDS011;53633;49.932;10.884;2023-05-07T03:04:40;16.75;;;8.73;;
66721;SDS011;53633;49.932;10.884;2023-05-07T03:07:08;15.93;;;8.17;;
66721;SDS011;53633;49.932;10.884;2023-05-07T03:09:35;15.30;;;8.70;;
66721;SDS011;53633;49.932;10.884;2023-05-07T03:12:02;15.18;;;9.05;;
66721;SDS011;53633;49.932;10.884;2023-05-07T03:14:29;16.38;;;9.55;;
66721;SDS011;53633;49.932;10.884;2023-05-07T03:16:55;15.02;;;8.43;;
66721;SDS011;53633;49.932;10.884;2023-05-07T03:19:22;16.27;;;8.43;;
66721;SDS011;53633;49.932;10.884;2023-05-07T03:21:49;15.45;;;8.68;;
66721;SDS011;53633;49.932;10.884;2023-05-07T03:24:17;13.43;;;8.07;;
66721;SDS011;53633;49.932;10.884;2023-05-07T03:26:43;14.15;;;8.68;;
66721;SDS011;53633;49.932;10.884;2023-05-07T03:29:10;15.05;;;8.65;;
66721;SDS011;53633;49.932;10.884;2023-05-07T03:31:36;14.97;;;8.37;;
66721;SDS011;53633;49.932;10.884;2023-05-07T03:34:03;16.15;;;8.75;;
66721;SDS011;53633;49.932;10.884;2023-05-07T03:36:30;15.43;;;8.95;;
66721;SDS011;53633;49.932;10.884;2023-05-07T03:38:57;13.93;;;8.38;;
66721;SDS011;53633;49.932;10.884;2023-05-07T03:41:25;15.55;;;8.90;;
66721;SDS011;53633;49.932;10.884;2023-05-07T03:43:52;15.63;;;8.40;;
66721;SDS011;53633;49.932;10.884;2023-05-07T03:46:18;15.95;;;8.52;;
66721;SDS011;53633;49.932;10.884;2023-05-07T03:48:45;16.85;;;9.40;;
66721;SDS011;53633;49.932;10.884;2023-05-07T03:51:11;17.60;;;9.32;;
66721;SDS011;53633;49.932;10.884;2023-05-07T03:53:38;17.45;;;9.57;;
66721;SDS011;53633;49.932;10.884;2023-05-07T03:56:05;15.20;;;9.27;;
66721;SDS011;53633;49.932;10.884;2023-05-07T03:58:33;16.83;;;9.50;;
66721;SDS011;53633;49.932;10.884;2023-05-07T04:00:59;17.38;;;9.98;;
66721;SDS011;53633;49.932;10.884;2023-05-07T04:03:26;18.40;;;9.60;;
66721;SDS011;53633;49.932;10.884;2023-05-07T04:05:53;18.98;;;10.80;;
66721;SDS011;53633;49.932;10.884;2023-05-07T04:08:20;22.53;;;9.80;;
66721;SDS011;53633;49.932;10.884;2023-05-07T04:10:46;19.02;;;10.60;;
66721;SDS011;53633;49.932;10.884;2023-05-07T04:13:13;17.77;;;9.70;;
66721;SDS011;53633;49.932;10.884;2023-05-07T04:15:41;17.73;;;9.77;;
66721;SDS011;53633;49.932;10.884;2023-05-07T04:18:08;17.63;;;10.18;;
66721;SDS011;53633;49.932;10.884;2023-05-07T04:20:34;18.03;;;10.80;;
66721;SDS011;53633;49.932;10.884;2023-05-07T04:23:01;16.80;;;9.95;;
66721;SDS011;53633;49.932;10.884;2023-05-07T04:25:28;17.45;;;9.90;;
66721;SDS011;53633;49.932;10.884;2023-05-07T04:27:54;16.77;;;10.13;;
66721;SDS011;53633;49.932;10.884;2023-05-07T04:30:23;18.20;;;11.13;;
66721;SDS011;53633;49.932;10.884;2023-05-07T04:32:51;17.93;;;10.23;;
66721;SDS011;53633;49.932;10.884;2023-05-07T04:35:18;18.02;;;10.65;;
66721;SDS011;53633;49.932;10.884;2023-05-07T04:37:45;23.13;;;10.75;;
66721;SDS011;53633;49.932;10.884;2023-05-07T04:40:12;19.25;;;10.73;;
66721;SDS011;53633;49.932;10.884;2023-05-07T04:42:39;18.25;;;10.82;;
66721;SDS011;53633;49.932;10.884;2023-05-07T04:45:06;18.77;;;11.10;;
66721;SDS011;53633;49.932;10.884;2023-05-07T04:47:32;20.45;;;10.98;;
66721;SDS011;53633;49.932;10.884;2023-05-07T04:50:01;19.15;;;11.65;;
66721;SDS011;53633;49.932;10.884;2023-05-07T04:52:27;17.70;;;10.82;;
66721;SDS011;53633;49.932;10.884;2023-05-07T04:54:54;16.95;;;10.45;;
66721;SDS011;53633;49.932;10.884;2023-05-07T04:57:21;19.27;;;10.57;;
66721;SDS011;53633;49.932;10.884;2023-05-07T04:59:47;17.95;;;10.82;;
66721;SDS011;53633;49.932;10.884;2023-05-07T05:02:14;17.50;;;10.30;;
66721;SDS011;53633;49.932;10.884;2023-05-07T05:04:44;18.52;;;10.82;;
66721;SDS011;53633;49.932;10.884;2023-05-07T05:07:12;16.98;;;10.30;;
66721;SDS011;53633;49.932;10.884;2023-05-07T05:09:39;16.50;;;10.27;;
66721;SDS011;53633;49.932;10.884;2023-05-07T05:12:06;18.67;;;10.10;;
66721;SDS011;53633;49.932;10.884;2023-05-07T05:14:32;17.30;;;10.88;;
66721;SDS011;53633;49.932;10.884;2023-05-07T05:16:59;16.95;;;10.18;;
66721;SDS011;53633;49.932;10.884;2023-05-07T05:19:25;16.45;;;9.70;;
66721;SDS011;53633;49.932;10.884;2023-05-07T05:21:52;16.30;;;9.47;;
66721;SDS011;53633;49.932;10.884;2023-05-07T05:24:20;14.75;;;9.07;;
66721;SDS011;53633;49.932;10.884;2023-05-07T05:26:47;14.57;;;8.85;;
66721;SDS011;53633;49.932;10.884;2023-05-07T05:29:13;16.73;;;9.65;;
66721;SDS011;53633;49.932;10.884;2023-05-07T05:31:40;15.48;;;9.50;;
66721;SDS011;53633;49.932;10.884;2023-05-07T05:34:07;14.37;;;8.53;;
66721;SDS011;53633;49.932;10.884;2023-05-07T05:36:34;15.98;;;8.43;;
66721;SDS011;53633;49.932;10.884;2023-05-07T05:39:00;15.75;;;8.45;;
66721;SDS011;53633;49.932;10.884;2023-05-07T05:41:28;12.88;;;8.45;;
66721;SDS011;53633;49.932;10.884;2023-05-07T05:43:55;13.63;;;8.77;;
66721;SDS011;53633;49.932;10.884;2023-05-07T05:46:22;13.77;;;8.07;;
66721;SDS011;53633;49.932;10.884;2023-05-07T05:48:49;14.48;;;8.57;;
66721;SDS011;53633;49.932;10.884;2023-05-07T05:51:15;14.75;;;8.77;;
66721;SDS011;53633;49.932;10.884;2023-05-07T05:53:42;14.20;;;8.20;;
66721;SDS011;53633;49.932;10.884;2023-05-07T05:56:09;15.45;;;8.43;;
66721;SDS011;53633;49.932;10.884;2023-05-07T05:58:37;13.97;;;8.03;;
66721;SDS011;53633;49.932;10.884;2023-05-07T06:01:03;13.02;;;8.25;;
66721;SDS011;53633;49.932;10.884;2023-05-07T06:03:30;14.77;;;7.47;;
66721;SDS011;53633;49.932;10.884;2023-05-07T06:05:57;10.00;;;6.10;;
66721;SDS011;53633;49.932;10.884;2023-05-07T06:08:24;10.10;;;6.57;;
66721;SDS011;53633;49.932;10.884;2023-05-07T06:10:51;12.20;;;6.37;;
66721;SDS011;53633;49.932;10.884;2023-05-07T06:13:18;9.40;;;6.20;;
66721;SDS011;53633;49.932;10.884;2023-05-07T06:15:46;10.68;;;6.35;;
66721;SDS011;53633;49.932;10.884;2023-05-07T06:18:13;8.63;;;5.43;;
66721;SDS011;53633;49.932;10.884;2023-05-07T06:20:39;12.82;;;7.50;;
66721;SDS011;53633;49.932;10.884;2023-05-07T06:23:06;12.97;;;7.57;;
66721;SDS011;53633;49.932;10.884;2023-05-07T06:25:33;11.65;;;6.85;;
66721;SDS011;53633;49.932;10.884;2023-05-07T06:27:59;14.13;;;7.63;;
66721;SDS011;53633;49.932;10.884;2023-05-07T06:30:26;12.63;;;7.97;;
66721;SDS011;53633;49.932;10.884;2023-05-07T06:32:54;12.13;;;7.20;;
66721;SDS011;53633;49.932;10.884;2023-05-07T06:35:21;14.00;;;7.53;;
66721;SDS011;53633;49.932;10.884;2023-05-07T06:37:48;13.50;;;7.65;;
66721;SDS011;53633;49.932;10.884;2023-05-07T06:40:14;12.77;;;7.88;;
66721;SDS011;53633;49.932;10.884;2023-05-07T06:42:41;14.13;;;7.57;;
66721;SDS011;53633;49.932;10.884;2023-05-07T06:45:08;13.75;;;7.78;;
66721;SDS011;53633;49.932;10.884;2023-05-07T06:47:35;12.63;;;8.13;;
66721;SDS011;53633;49.932;10.884;2023-05-07T06:50:03;13.18;;;7.63;;
66721;SDS011;53633;49.932;10.884;2023-05-07T06:52:31;12.15;;;8.07;;
66721;SDS011;53633;49.932;10.884;2023-05-07T06:54:58;12.13;;;7.50;;
66721;SDS011;53633;49.932;10.884;2023-05-07T06:57:24;13.05;;;7.75;;
66721;SDS011;53633;49.932;10.884;2023-05-07T06:59:51;12.63;;;7.67;;
66721;SDS011;53633;49.932;10.884;2023-05-07T07:02:17;12.10;;;7.30;;
66721;SDS011;53633;49.932;10.884;2023-05-07T07:04:44;12.63;;;7.78;;
66721;SDS011;53633;49.932;10.884;2023-05-07T07:07:12;12.40;;;7.53;;
66721;SDS011;53633;49.932;10.884;2023-05-07T07:09:39;11.98;;;7.60;;
66721;SDS011;53633;49.932;10.884;2023-05-07T07:12:06;11.63;;;7.10;;
66721;SDS011;53633;49.932;10.884;2023-05-07T07:14:33;11.70;;;6.85;;
66721;SDS011;53633;49.932;10.884;2023-05-07T07:16:59;11.93;;;7.43;;
66721;SDS011;53633;49.932;10.884;2023-05-07T07:19:26;12.20;;;7.10;;
66721;SDS011;53633;49.932;10.884;2023-05-07T07:21:53;12.15;;;7.18;;
66721;SDS011;53633;49.932;10.884;2023-05-07T07:24:21;11.17;;;7.03;;
66721;SDS011;53633;49.932;10.884;2023-05-07T07:26:47;11.52;;;6.63;;
66721;SDS011;53633;49.932;10.884;2023-05-07T07:29:14;12.32;;;6.90;;
66721;SDS011;53633;49.932;10.884;2023-05-07T07:31:41;12.05;;;6.82;;
66721;SDS011;53633;49.932;10.884;2023-05-07T07:34:07;11.05;;;6.80;;
66721;SDS011;53633;49.932;10.884;2023-05-07T07:36:34;11.13;;;6.30;;
66721;SDS011;53633;49.932;10.884;2023-05-07T07:39:12;10.82;;;6.63;;
66721;SDS011;53633;49.932;10.884;2023-05-07T07:41:40;10.82;;;6.68;;
66721;SDS011;53633;49.932;10.884;2023-05-07T07:44:06;11.65;;;6.70;;
66721;SDS011;53633;49.932;10.884;2023-05-07T07:46:33;10.20;;;5.75;;
66721;SDS011;53633;49.932;10.884;2023-05-07T07:49:00;10.10;;;5.20;;
66721;SDS011;53633;49.932;10.884;2023-05-07T07:51:26;10.80;;;5.30;;
66721;SDS011;53633;49.932;10.884;2023-05-07T07:53:53;10.80;;;5.43;;
66721;SDS011;53633;49.932;10.884;2023-05-07T07:56:20;10.38;;;6.18;;
66721;SDS011;53633;49.932;10.884;2023-05-07T07:58:48;9.27;;;6.05;;
66721;SDS011;53633;49.932;10.884;2023-05-07T08:01:14;10.43;;;6.20;;
66721;SDS011;53633;49.932;10.884;2023-05-07T08:03:41;11.00;;;6.60;;
66721;SDS011;53633;49.932;10.884;2023-05-07T08:06:08;10.32;;;6.63;;
66721;SDS011;53633;49.932;10.884;2023-05-07T08:08:35;8.70;;;5.20;;
66721;SDS011;53633;49.932;10.884;2023-05-07T08:11:01;8.27;;;4.90;;
66721;SDS011;53633;49.932;10.884;2023-05-07T08:13:28;9.87;;;5.43;;
66721;SDS011;53633;49.932;10.884;2023-05-07T08:15:56;7.53;;;5.03;;
66721;SDS011;53633;49.932;10.884;2023-05-07T08:18:23;9.13;;;5.47;;
66721;SDS011;53633;49.932;10.884;2023-05-07T08:20:49;10.30;;;4.97;;
66721;SDS011;53633;49.932;10.884;2023-05-07T08:23:16;8.88;;;5.63;;
66721;SDS011;53633;49.932;10.884;2023-05-07T08:25:43;7.77;;;4.93;;
66721;SDS011;53633;49.932;10.884;2023-05-07T08:28:09;9.23;;;4.82;;
66721;SDS011;53633;49.932;10.884;2023-05-07T08:30:36;8.25;;;5.05;;
66721;SDS011;53633;49.932;10.884;2023-05-07T08:33:04;7.82;;;4.60;;
66721;SDS011;53633;49.932;10.884;2023-05-07T08:35:31;8.10;;;4.80;;
66721;SDS011;53633;49.932;10.884;2023-05-07T08:37:57;10.70;;;5.60;;
66721;SDS011;53633;49.932;10.884;2023-05-07T08:40:25;8.27;;;5.18;;
66721;SDS011;53633;49.932;10.884;2023-05-07T08:42:52;8.82;;;5.10;;
66721;SDS011;53633;49.932;10.884;2023-05-07T08:45:20;9.45;;;5.60;;
66721;SDS011;53633;49.932;10.884;2023-05-07T08:47:47;8.50;;;5.25;;
66721;SDS011;53633;49.932;10.884;2023-05-07T08:50:19;8.23;;;4.57;;
66721;SDS011;53633;49.932;10.884;2023-05-07T08:52:47;10.52;;;4.75;;
66721;SDS011;53633;49.932;10.884;2023-05-07T08:55:13;8.18;;;5.60;;
66721;SDS011;53633;49.932;10.884;2023-05-07T08:57:41;7.85;;;5.00;;
66721;SDS011;53633;49.932;10.884;2023-05-07T09:00:08;8.55;;;5.63;;
66721;SDS011;53633;49.932;10.884;2023-05-07T09:02:35;8.57;;;4.90;;
66721;SDS011;53633;49.932;10.884;2023-05-07T09:05:02;8.15;;;5.00;;
66721;SDS011;53633;49.932;10.884;2023-05-07T09:07:30;9.43;;;5.57;;
66721;SDS011;53633;49.932;10.884;2023-05-07T09:09:57;8.52;;;5.30;;
66721;SDS011;53633;49.932;10.884;2023-05-07T09:12:24;8.25;;;5.00;;
66721;SDS011;53633;49.932;10.884;2023-05-07T09:14:51;8.57;;;4.30;;
66721;SDS011;53633;49.932;10.884;2023-05-07T09:17:17;7.72;;;4.65;;
66721;SDS011;53633;49.932;10.884;2023-05-07T09:19:44;8.52;;;5.25;;
66721;SDS011;53633;49.932;10.884;2023-05-07T09:22:11;8.32;;;5.00;;
66721;SDS011;53633;49.932;10.884;2023-05-07T09:24:40;8.52;;;5.18;;
66721;SDS011;53633;49.932;10.884;2023-05-07T09:27:07;6.90;;;4.27;;
66721;SDS011;53633;49.932;10.884;2023-05-07T09:29:34;8.32;;;4.53;;
66721;SDS011;53633;49.932;10.884;2023-05-07T09:32:00;9.00;;;4.40;;
66721;SDS011;53633;49.932;10.884;2023-05-07T09:34:28;9.10;;;4.60;;
66721;SDS011;53633;49.932;10.884;2023-05-07T09:36:55;7.38;;;4.43;;
66721;SDS011;53633;49.932;10.884;2023-05-07T09:39:21;7.70;;;4.90;;
66721;SDS011;53633;49.932;10.884;2023-05-07T09:41:50;8.07;;;4.95;;
66721;SDS011;53633;49.932;10.884;2023-05-07T09:44:17;8.13;;;5.15;;
66721;SDS011;53633;49.932;10.884;2023-05-07T09:46:44;8.25;;;4.50;;
66721;SDS011;53633;49.932;10.884;2023-05-07T09:49:20;7.03;;;4.75;;
66721;SDS011;53633;49.932;10.884;2023-05-07T09:51:49;7.90;;;4.87;;
66721;SDS011;53633;49.932;10.884;2023-05-07T09:54:17;6.53;;;3.67;;
66721;SDS011;53633;49.932;10.884;2023-05-07T09:56:44;8.43;;;4.95;;
66721;SDS011;53633;49.932;10.884;2023-05-07T09:59:13;6.85;;;4.20;;
66721;SDS011;53633;49.932;10.884;2023-05-07T10:01:41;8.13;;;4.65;;
66721;SDS011;53633;49.932;10.884;2023-05-07T10:04:09;6.80;;;4.20;;
66721;SDS011;53633;49.932;10.884;2023-05-07T10:06:36;7.05;;;4.10;;
66721;SDS011;53633;49.932;10.884;2023-05-07T10:09:04;6.93;;;3.95;;
66721;SDS011;53633;49.932;10.884;2023-05-07T10:11:31;8.45;;;4.40;;
66721;SDS011;53633;49.932;10.884;2023-05-07T10:13:58;8.15;;;4.60;;
66721;SDS011;53633;49.932;10.884;2023-05-07T10:16:31;7.80;;;4.37;;
66721;SDS011;53633;49.932;10.884;2023-05-07T10:18:59;8.38;;;4.15;;
66721;SDS011;53633;49.932;10.884;2023-05-07T10:21:27;8.65;;;4.00;;
66721;SDS011;53633;49.932;10.884;2023-05-07T10:23:57;7.72;;;4.25;;
66721;SDS011;53633;49.932;10.884;2023-05-07T10:26:25;7.38;;;3.75;;
66721;SDS011;53633;49.932;10.884;2023-05-07T10:28:56;7.10;;;3.83;;
66721;SDS011;53633;49.932;10.884;2023-05-07T10:31:45;7.38;;;3.80;;
66721;SDS011;53633;49.932;10.884;2023-05-07T10:34:19;7.18;;;3.80;;
66721;SDS011;53633;49.932;10.884;2023-05-07T10:36:50;7.75;;;3.67;;
66721;SDS011;53633;49.932;10.884;2023-05-07T10:39:19;6.53;;;4.03;;
66721;SDS011;53633;49.932;10.884;2023-05-07T10:41:46;5.93;;;3.43;;
66721;SDS011;53633;49.932;10.884;2023-05-07T10:44:24;7.93;;;3.78;;
66721;SDS011;53633;49.932;10.884;2023-05-07T10:47:04;6.47;;;3.78;;
66721;SDS011;53633;49.932;10.884;2023-05-07T10:49:32;6.30;;;3.95;;
66721;SDS011;53633;49.932;10.884;2023-05-07T10:52:13;6.82;;;3.78;;
66721;SDS011;53633;49.932;10.884;2023-05-07T10:54:41;7.80;;;3.93;;
66721;SDS011;53633;49.932;10.884;2023-05-07T10:57:32;6.20;;;3.75;;
66721;SDS011;53633;49.932;10.884;2023-05-07T10:59:59;6.78;;;3.38;;
66721;SDS011;53633;49.932;10.884;2023-05-07T11:05:28;6.85;;;3.55;;
66721;SDS011;53633;49.932;10.884;2023-05-07T11:07:56;6.77;;;3.13;;
66721;SDS011;53633;49.932;10.884;2023-05-07T11:10:24;6.10;;;3.42;;
66721;SDS011;53633;49.932;10.884;2023-05-07T11:13:14;7.10;;;3.25;;
66721;SDS011;53633;49.932;10.884;2023-05-07T11:15:42;6.50;;;3.58;;
66721;SDS011;53633;49.932;10.884;2023-05-07T11:18:10;7.63;;;3.55;;
66721;SDS011;53633;49.932;10.884;2023-05-07T11:20:53;5.80;;;3.13;;
66721;SDS011;53633;49.932;10.884;2023-05-07T11:26:44;7.90;;;4.25;;
66721;SDS011;53633;49.932;10.884;2023-05-07T11:29:12;6.88;;;3.97;;
66721;SDS011;53633;49.932;10.884;2023-05-07T11:31:40;8.20;;;4.75;;
66721;SDS011;53633;49.932;10.884;2023-05-07T11:34:07;8.63;;;5.00;;
66721;SDS011;53633;49.932;10.884;2023-05-07T11:36:37;6.93;;;4.20;;
66721;SDS011;53633;49.932;10.884;2023-05-07T11:39:22;7.47;;;4.60;;
66721;SDS011;53633;49.932;10.884;2023-05-07T11:41:50;7.57;;;4.05;;
66721;SDS011;53633;49.932;10.884;2023-05-07T11:44:18;9.30;;;5.45;;
66721;SDS011;53633;49.932;10.884;2023-05-07T11:46:45;8.90;;;4.53;;
66721;SDS011;53633;49.932;10.884;2023-05-07T11:49:12;8.68;;;4.13;;
66721;SDS011;53633;49.932;10.884;2023-05-07T11:51:40;8.88;;;4.32;;
66721;SDS011;53633;49.932;10.884;2023-05-07T11:54:08;7.45;;;4.25;;
66721;SDS011;53633;49.932;10.884;2023-05-07T11:56:35;6.93;;;4.00;;
66721;SDS011;53633;49.932;10.884;2023-05-07T11:59:01;6.43;;;3.80;;
66721;SDS011;53633;49.932;10.884;2023-05-07T12:01:28;8.30;;;3.97;;
66721;SDS011;53633;49.932;10.884;2023-05-07T12:03:55;8.27;;;4.40;;
66721;SDS011;53633;49.932;10.884;2023-05-07T12:06:22;7.20;;;4.35;;
66721;SDS011;53633;49.932;10.884;2023-05-07T12:08:50;7.78;;;4.10;;
66721;SDS011;53633;49.932;10.884;2023-05-07T12:11:21;6.77;;;3.73;;
66721;SDS011;53633;49.932;10.884;2023-05-07T12:13:49;7.50;;;3.80;;
66721;SDS011;53633;49.932;10.884;2023-05-07T12:16:16;7.90;;;4.30;;
66721;SDS011;53633;49.932;10.884;2023-05-07T12:18:43;8.80;;;3.90;;
66721;SDS011;53633;49.932;10.884;2023-05-07T12:21:11;7.40;;;4.05;;
66721;SDS011;53633;49.932;10.884;2023-05-07T12:23:38;6.93;;;4.10;;
66721;SDS011;53633;49.932;10.884;2023-05-07T12:26:06;6.70;;;3.60;;
66721;SDS011;53633;49.932;10.884;2023-05-07T12:28:36;7.32;;;4.20;;
66721;SDS011;53633;49.932;10.884;2023-05-07T12:31:03;7.10;;;4.28;;
66721;SDS011;53633;49.932;10.884;2023-05-07T12:33:31;6.97;;;3.80;;
66721;SDS011;53633;49.932;10.884;2023-05-07T12:35:57;8.77;;;4.00;;
66721;SDS011;53633;49.932;10.884;2023-05-07T12:38:24;7.18;;;3.53;;
66721;SDS011;53633;49.932;10.884;2023-05-07T12:40:53;8.18;;;4.05;;
66721;SDS011;53633;49.932;10.884;2023-05-07T12:43:24;6.78;;;3.17;;
66721;SDS011;53633;49.932;10.884;2023-05-07T12:45:52;6.68;;;3.42;;
66721;SDS011;53633;49.932;10.884;2023-05-07T12:48:20;6.60;;;3.50;;
66721;SDS011;53633;49.932;10.884;2023-05-07T12:50:49;6.50;;;3.63;;
66721;SDS011;53633;49.932;10.884;2023-05-07T12:53:16;6.47;;;3.63;;
66721;SDS011;53633;49.932;10.884;2023-05-07T12:55:43;5.95;;;3.35;;
66721;SDS011;53633;49.932;10.884;2023-05-07T12:58:14;7.85;;;3.97;;
66721;SDS011;53633;49.932;10.884;2023-05-07T13:00:44;6.97;;;3.43;;
66721;SDS011;53633;49.932;10.884;2023-05-07T13:03:11;7.78;;;3.78;;
66721;SDS011;53633;49.932;10.884;2023-05-07T13:05:38;6.18;;;3.47;;
66721;SDS011;53633;49.932;10.884;2023-05-07T13:08:05;6.13;;;3.25;;
66721;SDS011;53633;49.932;10.884;2023-05-07T13:10:32;6.57;;;3.90;;
66721;SDS011;53633;49.932;10.884;2023-05-07T13:12:58;7.23;;;3.77;;
66721;SDS011;53633;49.932;10.884;2023-05-07T13:15:25;7.07;;;3.75;;
66721;SDS011;53633;49.932;10.884;2023-05-07T13:17:53;8.90;;;4.30;;
66721;SDS011;53633;49.932;10.884;2023-05-07T13:20:20;6.18;;;3.25;;
66721;SDS011;53633;49.932;10.884;2023-05-07T13:22:47;6.95;;;3.55;;
66721;SDS011;53633;49.932;10.884;2023-05-07T13:25:13;6.10;;;3.00;;
66721;SDS011;53633;49.932;10.884;2023-05-07T13:27:40;7.05;;;3.60;;
66721;SDS011;53633;49.932;10.884;2023-05-07T13:30:07;8.18;;;3.55;;
66721;SDS011;53633;49.932;10.884;2023-05-07T13:32:34;7.82;;;3.63;;
66721;SDS011;53633;49.932;10.884;2023-05-07T13:35:02;8.20;;;3.15;;
66721;SDS011;53633;49.932;10.884;2023-05-07T13:37:29;6.70;;;3.40;;
66721;SDS011;53633;49.932;10.884;2023-05-07T13:39:56;6.35;;;2.88;;
66721;SDS011;53633;49.932;10.884;2023-05-07T13:42:22;6.22;;;3.15;;
66721;SDS011;53633;49.932;10.884;2023-05-07T13:44:49;7.60;;;3.17;;
66721;SDS011;53633;49.932;10.884;2023-05-07T13:47:16;6.47;;;3.30;;
66721;SDS011;53633;49.932;10.884;2023-05-07T13:49:42;5.70;;;3.10;;
66721;SDS011;53633;49.932;10.884;2023-05-07T13:52:10;6.28;;;2.83;;
66721;SDS011;53633;49.932;10.884;2023-05-07T13:54:37;5.85;;;3.33;;
66721;SDS011;53633;49.932;10.884;2023-05-07T13:57:04;5.80;;;2.78;;
66721;SDS011;53633;49.932;10.884;2023-05-07T13:59:31;5.60;;;2.80;;
66721;SDS011;53633;49.932;10.884;2023-05-07T14:01:58;6.00;;;2.60;;
66721;SDS011;53633;49.932;10.884;2023-05-07T14:04:24;6.18;;;2.78;;
66721;SDS011;53633;49.932;10.884;2023-05-07T14:06:51;6.07;;;2.60;;
66721;SDS011;53633;49.932;10.884;2023-05-07T14:09:19;5.90;;;2.67;;
66721;SDS011;53633;49.932;10.884;2023-05-07T14:11:46;5.88;;;3.05;;
66721;SDS011;53633;49.932;10.884;2023-05-07T14:14:12;5.37;;;2.70;;
66721;SDS011;53633;49.932;10.884;2023-05-07T14:16:39;6.28;;;2.60;;
66721;SDS011;53633;49.932;10.884;2023-05-07T14:19:06;5.55;;;2.90;;
66721;SDS011;53633;49.932;10.884;2023-05-07T14:21:32;5.80;;;3.00;;
66721;SDS011;53633;49.932;10.884;2023-05-07T14:23:59;5.90;;;2.97;;
66721;SDS011;53633;49.932;10.884;2023-05-07T14:26:27;5.10;;;2.40;;
66721;SDS011;53633;49.932;10.884;2023-05-07T14:28:54;5.35;;;2.67;;
66721;SDS011;53633;49.932;10.884;2023-05-07T14:31:21;6.70;;;3.00;;
66721;SDS011;53633;49.932;10.884;2023-05-07T14:33:48;7.55;;;3.22;;
66721;SDS011;53633;49.932;10.884;2023-05-07T14:36:15;5.93;;;3.10;;